Time;durP1;ratioP1;P1;durP2;ratioP2;P2;SDS_P1;SDS_P2;PMS_P1;PMS_P2;Temp;Humidity;BMP_temperature;BMP_pressure;BME280_temperature;BME280_humidity;BME280_pressure;Samples;Min_cycle;Max_cycle;Signal;HPM_P1;HPM_P2
2022/05/15 00:00:58;;;;;;;;;;;;;;;14.81;56.86;101969.66;5052129;28;20369;-58
2022/05/15 00:03:24;;;;;;;;;;;;;;;14.84;56.76;101966.66;5052669;28;19975;-58
2022/05/15 00:05:51;;;;;;;;;;;;;;;14.83;56.82;101964.13;5044076;28;20386;-58
2022/05/15 00:08:16;;;;;;;;;;;;;;;14.83;56.57;101964.97;5051681;28;20394;-58
2022/05/15 00:10:41;;;;;;;;;;;;;;;14.82;56.82;101968.66;5044947;28;20016;-58
2022/05/15 00:13:06;;;;;;;;;;;;;;;14.82;56.77;101957.97;5046837;28;19928;-58
2022/05/15 00:15:33;;;;;;;;;;;;;;;14.81;56.38;101964.31;5052281;28;19924;-58
2022/05/15 00:17:58;;;;;;;;;;;;;;;14.79;56.70;101959.13;5051634;28;19921;-58
2022/05/15 00:20:23;;;;;;;;;;;;;;;14.71;57.17;101960.91;5052400;28;20459;-58
2022/05/15 00:22:49;;;;;;;;;;;;;;;14.70;56.76;101948.56;5052396;28;19957;-58
2022/05/15 00:25:14;;;;;;;;;;;;;;;14.68;56.84;101951.38;5051635;28;19921;-59
2022/05/15 00:27:39;;;;;;;;;;;;;;;14.64;56.87;101950.88;5053147;28;20000;-58
2022/05/15 00:30:05;;;;;;;;;;;;;;;14.62;56.92;101949.34;5052527;28;19924;-58
2022/05/15 00:32:32;;;;;;;;;;;;;;;14.64;57.30;101945.53;5052526;28;19960;-59
2022/05/15 00:34:57;;;;;;;;;;;;;;;14.59;57.23;101942.50;5052478;28;20456;-58
2022/05/15 00:37:22;;;;;;;;;;;;;;;14.56;57.50;101953.50;5052873;28;19921;-58
2022/05/15 00:39:47;;;;;;;;;;;;;;;14.52;57.45;101950.31;5052078;28;19925;-58
2022/05/15 00:42:12;;;;;;;;;;;;;;;14.48;57.54;101943.66;5032727;28;20011;-58
2022/05/15 00:44:38;;;;;;;;;;;;;;;14.42;57.33;101940.75;5052394;28;19921;-58
2022/05/15 00:47:03;;;;;;;;;;;;;;;14.42;57.22;101946.09;5052782;28;19965;-58
2022/05/15 00:49:30;;;;;;;;;;;;;;;14.41;57.80;101944.44;5051950;28;19921;-57
2022/05/15 00:52:01;;;;;;;;;;;;;;;14.38;57.27;101941.09;5051161;28;19928;-58
2022/05/15 00:54:32;;;;;;;;;;;;;;;14.38;57.47;101938.44;5032725;28;20379;-58
2022/05/15 00:57:01;;;;;;;;;;;;;;;14.36;58.06;101939.59;5048050;28;19917;-58
2022/05/15 00:59:27;;;;;;;;;;;;;;;14.30;57.64;101930.38;5051541;28;19931;-58
2022/05/15 01:01:52;;;;;;;;;;;;;;;14.31;57.80;101934.72;5050188;28;19924;-58
2022/05/15 01:04:18;;;;;;;;;;;;;;;14.29;57.89;101941.19;5051449;28;19975;-58
2022/05/15 01:06:43;;;;;;;;;;;;;;;14.25;57.72;101940.69;5051722;28;20380;-58
2022/05/15 01:09:09;;;;;;;;;;;;;;;14.24;57.71;101944.34;5051574;28;20418;-58
2022/05/15 01:11:34;;;;;;;;;;;;;;;14.28;57.87;101939.53;5050114;28;20451;-58
2022/05/15 01:14:05;;;;;;;;;;;;;;;14.19;57.73;101936.84;5051709;28;20334;-59
2022/05/15 01:16:31;;;;;;;;;;;;;;;14.15;58.17;101934.66;5049895;28;19920;-58
2022/05/15 01:18:57;;;;;;;;;;;;;;;14.13;57.71;101943.63;5051058;28;19935;-58
2022/05/15 01:21:25;;;;;;;;;;;;;;;14.10;57.91;101943.94;5047385;28;19936;-58
2022/05/15 01:23:50;;;;;;;;;;;;;;;14.16;58.22;101941.66;5050447;28;20028;-58
2022/05/15 01:26:16;;;;;;;;;;;;;;;14.09;57.93;101942.28;5052134;28;19971;-58
2022/05/15 01:28:44;;;;;;;;;;;;;;;14.07;57.94;101946.91;5050869;28;19955;-58
2022/05/15 01:31:09;;;;;;;;;;;;;;;14.01;58.22;101939.53;5053682;28;19936;-58
2022/05/15 01:33:34;;;;;;;;;;;;;;;13.99;58.67;101942.41;5055480;28;20304;-58
2022/05/15 01:35:59;;;;;;;;;;;;;;;13.96;57.97;101947.22;5049753;28;19967;-58
2022/05/15 01:38:25;;;;;;;;;;;;;;;13.95;58.27;101945.50;5053959;28;20306;-58
2022/05/15 01:40:50;;;;;;;;;;;;;;;13.93;58.44;101948.34;5055585;28;19948;-59
2022/05/15 01:43:16;;;;;;;;;;;;;;;13.91;58.10;101946.84;5052619;28;19929;-58
2022/05/15 01:45:42;;;;;;;;;;;;;;;13.91;58.56;101941.50;5053668;28;19921;-58
2022/05/15 01:48:07;;;;;;;;;;;;;;;13.83;58.41;101943.09;5048448;28;20321;-59
2022/05/15 01:50:33;;;;;;;;;;;;;;;13.78;58.83;101940.09;5048358;28;19929;-58
2022/05/15 01:52:58;;;;;;;;;;;;;;;13.76;58.67;101944.72;5053461;28;19947;-58
2022/05/15 01:55:23;;;;;;;;;;;;;;;13.77;58.94;101946.38;5051477;28;19986;-58
2022/05/15 01:57:49;;;;;;;;;;;;;;;13.76;58.63;101946.56;5055024;28;20379;-58
2022/05/15 02:00:16;;;;;;;;;;;;;;;13.71;58.73;101939.84;5052775;28;19921;-58
2022/05/15 02:02:41;;;;;;;;;;;;;;;13.70;58.67;101942.66;5046264;28;19928;-59
2022/05/15 02:05:07;;;;;;;;;;;;;;;13.69;58.59;101935.69;5054474;28;19921;-58
2022/05/15 02:07:33;;;;;;;;;;;;;;;13.67;59.24;101938.50;5053816;28;19928;-58
2022/05/15 02:09:58;;;;;;;;;;;;;;;13.63;59.24;101930.97;5052873;28;19929;-58
2022/05/15 02:12:23;;;;;;;;;;;;;;;13.62;58.85;101934.63;5055014;28;20375;-58
2022/05/15 02:14:48;;;;;;;;;;;;;;;13.59;58.83;101925.09;5053956;28;19927;-57
2022/05/15 02:17:14;;;;;;;;;;;;;;;13.59;59.04;101925.09;5055386;28;19999;-58
2022/05/15 02:19:39;;;;;;;;;;;;;;;13.57;58.93;101927.09;5047870;28;20386;-58
2022/05/15 02:22:04;;;;;;;;;;;;;;;13.53;59.18;101931.06;5052713;28;19949;-57
2022/05/15 02:24:29;;;;;;;;;;;;;;;13.50;58.93;101931.34;5052362;28;19928;-59
2022/05/15 02:26:54;;;;;;;;;;;;;;;13.48;59.44;101928.00;5054368;28;19921;-59
2022/05/15 02:29:20;;;;;;;;;;;;;;;13.44;59.20;101924.78;5055264;28;20362;-58
2022/05/15 02:31:45;;;;;;;;;;;;;;;13.43;59.19;101931.13;5052327;28;19921;-58
2022/05/15 02:34:10;;;;;;;;;;;;;;;13.37;59.38;101943.22;5053727;28;20421;-58
2022/05/15 02:36:35;;;;;;;;;;;;;;;13.31;59.56;101934.00;5055358;28;19921;-58
2022/05/15 02:39:00;;;;;;;;;;;;;;;13.29;59.34;101936.00;5036903;28;19927;-58
2022/05/15 02:41:26;;;;;;;;;;;;;;;13.24;59.57;101927.63;5049055;28;21499;-58
2022/05/15 02:43:51;;;;;;;;;;;;;;;13.21;59.67;101927.09;5052983;28;19936;-58
2022/05/15 02:46:16;;;;;;;;;;;;;;;13.14;59.69;101921.53;5052910;28;20839;-58
2022/05/15 02:51:26;;;;;;;;;;;;;;;13.07;59.93;101923.13;5040190;28;19975;-58
2022/05/15 02:53:51;;;;;;;;;;;;;;;13.07;59.97;101920.47;5052051;28;19920;-57
2022/05/15 02:56:19;;;;;;;;;;;;;;;13.05;59.86;101917.94;5053600;28;20363;-58
2022/05/15 02:58:44;;;;;;;;;;;;;;;13.01;59.94;101916.56;5053446;28;19952;-58
2022/05/15 03:01:10;;;;;;;;;;;;;;;12.99;59.82;101913.22;5052533;28;21403;-58
2022/05/15 03:03:35;;;;;;;;;;;;;;;12.99;59.92;101913.22;5052226;28;19995;-58
2022/05/15 03:06:00;;;;;;;;;;;;;;;12.96;60.41;101909.03;5043399;28;19920;-58
2022/05/15 03:08:26;;;;;;;;;;;;;;;12.92;61.24;101907.66;5053806;28;19959;-58
2022/05/15 03:10:51;;;;;;;;;;;;;;;12.86;60.62;101908.25;5052206;28;19921;-58
2022/05/15 03:13:16;;;;;;;;;;;;;;;12.82;60.26;101906.91;5052484;28;20023;-57
2022/05/15 03:15:42;;;;;;;;;;;;;;;12.80;60.53;101906.19;5051937;28;19959;-58
2022/05/15 03:18:07;;;;;;;;;;;;;;;12.79;60.18;101908.03;5052829;28;19928;-58
2022/05/15 03:20:32;;;;;;;;;;;;;;;12.75;61.07;101902.19;5049343;28;19921;-59
2022/05/15 03:22:58;;;;;;;;;;;;;;;12.71;60.40;101906.13;5052755;28;19920;-58
2022/05/15 03:25:26;;;;;;;;;;;;;;;12.69;61.10;101910.78;5053089;28;19920;-57
2022/05/15 03:27:51;;;;;;;;;;;;;;;12.63;60.92;101919.34;5052322;28;20370;-58
2022/05/15 03:30:16;;;;;;;;;;;;;;;12.57;60.76;101910.13;5052041;28;19928;-58
2022/05/15 03:32:41;;;;;;;;;;;;;;;12.56;60.98;101902.28;5051576;28;19974;-59
2022/05/15 03:35:08;;;;;;;;;;;;;;;12.55;61.01;101912.09;5048239;28;19932;-59
2022/05/15 03:37:33;;;;;;;;;;;;;;;12.55;61.14;101906.78;5052713;28;20004;-58
2022/05/15 03:39:58;;;;;;;;;;;;;;;12.55;62.56;101905.94;5050337;28;20057;-58
2022/05/15 03:42:26;;;;;;;;;;;;;;;12.53;61.09;101899.94;5053866;28;20015;-58
2022/05/15 03:44:51;;;;;;;;;;;;;;;12.51;60.77;101906.25;5050276;28;19921;-58
2022/05/15 03:47:17;;;;;;;;;;;;;;;12.48;61.29;101901.19;5052511;28;19966;-58
2022/05/15 03:49:42;;;;;;;;;;;;;;;12.46;61.21;101903.19;5052706;28;20378;-58
2022/05/15 03:52:07;;;;;;;;;;;;;;;12.45;61.30;101904.16;5041946;28;20008;-58
2022/05/15 03:54:33;;;;;;;;;;;;;;;12.45;61.25;101906.84;5048242;28;20007;-58
2022/05/15 03:56:58;;;;;;;;;;;;;;;12.43;61.74;101900.81;5051605;28;19921;-59
2022/05/15 03:59:23;;;;;;;;;;;;;;;12.44;61.75;101899.00;5052510;28;19921;-57
2022/05/15 04:01:49;;;;;;;;;;;;;;;12.43;61.78;101898.13;5045113;28;19928;-58
2022/05/15 04:04:14;;;;;;;;;;;;;;;12.42;61.69;101895.63;5048082;28;20035;-58
2022/05/15 04:06:39;;;;;;;;;;;;;;;12.40;61.29;101894.94;5050183;28;21432;-58
2022/05/15 04:09:05;;;;;;;;;;;;;;;12.38;61.28;101901.25;5049340;28;19928;-58
2022/05/15 04:11:30;;;;;;;;;;;;;;;12.37;61.75;101909.38;5053489;28;19994;-58
2022/05/15 04:13:55;;;;;;;;;;;;;;;12.34;61.59;101907.84;5052058;28;20074;-58
2022/05/15 04:16:21;;;;;;;;;;;;;;;12.35;61.73;101908.69;5048998;28;19928;-58
2022/05/15 04:18:46;;;;;;;;;;;;;;;12.33;61.80;101919.47;5048429;28;19925;-58
2022/05/15 04:21:11;;;;;;;;;;;;;;;12.33;62.36;101919.47;5048206;28;19928;-58
2022/05/15 04:23:37;;;;;;;;;;;;;;;12.30;62.79;101921.59;5051165;28;19933;-58
2022/05/15 04:26:03;;;;;;;;;;;;;;;12.27;62.44;101920.06;5049754;28;20011;-58
2022/05/15 04:28:28;;;;;;;;;;;;;;;12.26;62.79;101917.53;5051872;28;19921;-58
2022/05/15 04:30:53;;;;;;;;;;;;;;;12.28;62.27;101920.91;5049397;28;20547;-58
2022/05/15 04:33:18;;;;;;;;;;;;;;;12.28;62.44;101918.25;5051014;28;19925;-58
2022/05/15 04:35:43;;;;;;;;;;;;;;;12.29;62.20;101911.94;5052360;28;19944;-58
2022/05/15 04:38:09;;;;;;;;;;;;;;;12.28;64.04;101907.59;5052410;28;19921;-58
2022/05/15 04:40:34;;;;;;;;;;;;;;;12.27;62.44;101906.75;5051465;28;19924;-58
2022/05/15 04:42:59;;;;;;;;;;;;;;;12.28;62.16;101911.09;5049475;28;19929;-58
2022/05/15 04:45:25;;;;;;;;;;;;;;;12.29;62.54;101909.28;5050383;28;20267;-59
2022/05/15 04:47:50;;;;;;;;;;;;;;;12.29;62.27;101909.28;5051017;28;19943;-58
2022/05/15 04:50:16;;;;;;;;;;;;;;;12.32;62.33;101908.97;5052740;28;20363;-58
2022/05/15 04:52:41;;;;;;;;;;;;;;;12.33;62.28;101913.34;5053001;28;20011;-58
2022/05/15 04:55:06;;;;;;;;;;;;;;;12.32;62.55;101907.16;5050205;28;20011;-58
2022/05/15 04:57:32;;;;;;;;;;;;;;;12.36;62.97;101902.38;5047251;28;19931;-58
2022/05/15 04:59:57;;;;;;;;;;;;;;;12.38;63.80;101908.38;5050716;28;19925;-58
2022/05/15 05:02:22;;;;;;;;;;;;;;;12.40;62.87;101909.09;5051329;28;19921;-58
2022/05/15 05:04:47;;;;;;;;;;;;;;;12.44;62.85;101915.78;5052338;28;20279;-58
2022/05/15 05:07:12;;;;;;;;;;;;;;;12.41;63.85;101905.44;5050439;28;19921;-58
2022/05/15 05:09:38;;;;;;;;;;;;;;;12.44;63.61;101914.94;5051440;28;20360;-58
2022/05/15 05:12:03;;;;;;;;;;;;;;;12.45;63.32;101922.78;5049075;28;19925;-58
2022/05/15 05:14:28;;;;;;;;;;;;;;;12.48;64.16;101927.81;5052491;28;19917;-59
2022/05/15 05:16:53;;;;;;;;;;;;;;;12.48;63.20;101922.47;5050955;28;19925;-59
2022/05/15 05:19:19;;;;;;;;;;;;;;;12.52;63.83;101920.38;5052660;28;20405;-58
2022/05/15 05:21:44;;;;;;;;;;;;;;;12.51;63.31;101926.69;5051679;28;19927;-59
2022/05/15 05:24:09;;;;;;;;;;;;;;;12.53;63.22;101924.69;5052573;28;20339;-58
2022/05/15 05:26:34;;;;;;;;;;;;;;;12.58;62.98;101921.63;5045110;28;19928;-59
2022/05/15 05:28:59;;;;;;;;;;;;;;;12.61;63.89;101921.31;5048968;28;20364;-59
2022/05/15 05:31:25;;;;;;;;;;;;;;;12.60;64.59;101914.31;5050653;28;20019;-58
2022/05/15 05:33:50;;;;;;;;;;;;;;;12.60;65.29;101919.63;5041892;28;20282;-59
2022/05/15 05:36:16;;;;;;;;;;;;;;;12.60;63.82;101908.97;5051602;28;19950;-58
2022/05/15 05:38:41;;;;;;;;;;;;;;;12.68;63.53;101911.72;5034410;28;20318;-58
2022/05/15 05:41:06;;;;;;;;;;;;;;;12.77;63.02;101915.31;5046809;28;19927;-58
2022/05/15 05:43:31;;;;;;;;;;;;;;;12.84;65.30;101913.75;5051559;28;20324;-58
2022/05/15 05:45:57;;;;;;;;;;;;;;;12.90;63.71;101917.63;5033063;28;19916;-59
2022/05/15 05:48:22;;;;;;;;;;;;;;;12.99;63.92;101919.41;5048456;28;20376;-59
2022/05/15 05:50:47;;;;;;;;;;;;;;;13.09;63.48;101918.47;5050101;28;19936;-58
2022/05/15 05:53:13;;;;;;;;;;;;;;;13.16;64.84;101917.72;5050203;28;19921;-61
2022/05/15 05:55:38;;;;;;;;;;;;;;;13.22;64.01;101916.25;5050980;28;20058;-58
2022/05/15 05:58:03;;;;;;;;;;;;;;;13.32;63.95;101914.38;5051657;28;19921;-58
2022/05/15 06:00:29;;;;;;;;;;;;;;;13.45;63.41;101913.13;5050784;28;19928;-59
2022/05/15 06:04:39;;;;;;;;;;;;;;;13.52;63.93;101916.88;5049880;28;19925;-57
2022/05/15 06:05:40;;;;;;;;;;;;;;;13.66;63.34;101920.00;5049337;28;20409;-58
2022/05/15 06:08:06;;;;;;;;;;;;;;;13.78;63.23;101923.25;5050699;28;19927;-54
2022/05/15 06:10:31;;;;;;;;;;;;;;;13.89;63.62;101915.00;5043484;28;19924;-57
2022/05/15 06:12:56;;;;;;;;;;;;;;;14.01;62.48;101912.88;5048291;28;19925;-58
2022/05/15 06:15:21;;;;;;;;;;;;;;;14.14;62.66;101917.78;5044653;28;20416;-58
2022/05/15 06:17:47;;;;;;;;;;;;;;;14.26;62.90;101916.50;5053716;28;19952;-58
2022/05/15 06:20:12;;;;;;;;;;;;;;;14.37;62.81;101912.72;5055287;28;20264;-57
2022/05/15 06:22:37;;;;;;;;;;;;;;;14.51;62.72;101918.47;5054739;28;19974;-58
2022/05/15 06:25:03;;;;;;;;;;;;;;;14.61;62.00;101911.16;5049024;28;19917;-57
2022/05/15 06:27:28;;;;;;;;;;;;;;;14.70;62.31;101913.84;5053276;28;19921;-57
2022/05/15 06:29:57;;;;;;;;;;;;;;;14.78;62.53;101909.41;5054370;28;19971;-58
2022/05/15 06:32:22;;;;;;;;;;;;;;;14.88;62.48;101903.06;5054541;28;20394;-57
2022/05/15 06:34:48;;;;;;;;;;;;;;;14.95;61.97;101908.59;5048298;28;19921;-58
2022/05/15 06:37:13;;;;;;;;;;;;;;;15.04;62.23;101912.94;5052527;28;19966;-58
2022/05/15 06:39:38;;;;;;;;;;;;;;;15.10;62.02;101909.59;5053124;28;19921;-58
2022/05/15 06:42:03;;;;;;;;;;;;;;;15.17;62.23;101907.97;5054512;28;19924;-57
2022/05/15 06:44:29;;;;;;;;;;;;;;;15.26;62.06;101906.13;5052917;28;20367;-57
2022/05/15 06:46:56;;;;;;;;;;;;;;;15.29;62.43;101904.97;5052493;28;20365;-59
2022/05/15 06:49:22;;;;;;;;;;;;;;;15.35;62.25;101898.97;5045598;28;19982;-58
2022/05/15 06:51:47;;;;;;;;;;;;;;;15.45;61.50;101899.59;5046784;28;19929;-58
2022/05/15 06:54:12;;;;;;;;;;;;;;;15.57;61.93;101901.94;5044472;28;20312;-59
2022/05/15 06:59:21;;;;;;;;;;;;;;;15.76;61.60;101902.56;5047314;28;20019;-59
2022/05/15 07:01:47;;;;;;;;;;;;;;;15.84;61.48;101903.38;5045770;28;20394;-58
2022/05/15 07:04:12;;;;;;;;;;;;;;;15.91;61.52;101898.22;5049656;28;19920;-58
2022/05/15 07:06:37;;;;;;;;;;;;;;;15.98;61.17;101915.25;5048202;28;19928;-58
2022/05/15 07:09:02;;;;;;;;;;;;;;;16.06;60.64;101911.75;5049864;28;19916;-58
2022/05/15 07:11:28;;;;;;;;;;;;;;;16.13;60.51;101912.72;5047270;28;20035;-58
2022/05/15 07:13:53;;;;;;;;;;;;;;;16.22;60.35;101918.88;5045491;28;19937;-58
2022/05/15 07:16:19;;;;;;;;;;;;;;;16.29;60.08;101910.16;5046099;28;19924;-58
2022/05/15 07:18:44;;;;;;;;;;;;;;;16.36;59.95;101922.69;5045283;28;20342;-58
2022/05/15 07:21:09;;;;;;;;;;;;;;;16.43;60.21;101922.78;5046757;28;19925;-58
2022/05/15 07:23:34;;;;;;;;;;;;;;;16.50;59.91;101918.44;5048138;28;19924;-58
2022/05/15 07:26:00;;;;;;;;;;;;;;;16.60;60.18;101917.38;5050635;28;19917;-57
2022/05/15 07:28:25;;;;;;;;;;;;;;;16.70;59.71;101918.00;5043198;28;19921;-58
2022/05/15 07:30:51;;;;;;;;;;;;;;;16.84;59.74;101918.25;5046336;28;19928;-58
2022/05/15 07:33:19;;;;;;;;;;;;;;;16.95;59.77;101923.19;5041468;28;20027;-58
2022/05/15 07:35:45;;;;;;;;;;;;;;;17.06;59.26;101917.47;5045530;28;19936;-58
2022/05/15 07:38:10;;;;;;;;;;;;;;;17.19;58.70;101916.03;5046081;28;20267;-58
2022/05/15 07:40:36;;;;;;;;;;;;;;;17.30;58.52;101912.94;5046027;28;19978;-59
2022/05/15 07:43:04;;;;;;;;;;;;;;;17.38;58.27;101919.22;5042707;28;19917;-58
2022/05/15 07:45:29;;;;;;;;;;;;;;;17.49;57.18;101910.75;5042877;28;19920;-58
2022/05/15 07:47:54;;;;;;;;;;;;;;;17.58;56.00;101911.53;5043874;28;20043;-58
2022/05/15 07:50:19;;;;;;;;;;;;;;;17.72;56.86;101909.88;5045341;28;19951;-59
2022/05/15 07:52:44;;;;;;;;;;;;;;;17.84;57.11;101907.56;5048016;28;19948;-57
2022/05/15 07:55:10;;;;;;;;;;;;;;;17.98;56.52;101908.59;5042550;28;19932;-57
2022/05/15 07:57:35;;;;;;;;;;;;;;;18.08;56.67;101898.47;5047548;28;19921;-58
2022/05/15 08:00:03;;;;;;;;;;;;;;;18.17;56.58;101901.03;5047919;28;19935;-58
2022/05/15 08:02:29;;;;;;;;;;;;;;;18.28;56.28;101905.94;5043678;28;19920;-58
2022/05/15 08:10:21;;;;;;;;;;;;;;;18.62;55.71;101903.63;5045690;28;20286;-58
2022/05/15 08:12:47;;;;;;;;;;;;;;;18.68;54.78;101895.66;5047162;28;19921;-57
2022/05/15 08:15:12;;;;;;;;;;;;;;;18.76;53.66;101896.56;5046221;28;20011;-58
2022/05/15 08:17:37;;;;;;;;;;;;;;;18.82;52.51;101887.75;5043245;28;20275;-58
2022/05/15 08:25:32;;;;;;;;;;;;;;;19.14;54.14;101877.53;5040761;28;21267;-58
2022/05/15 08:27:57;;;;;;;;;;;;;;;19.25;53.74;101875.34;5049208;28;19917;-58
2022/05/15 08:30:22;;;;;;;;;;;;;;;19.36;52.33;101872.13;5046317;28;19948;-58
2022/05/15 08:32:51;;;;;;;;;;;;;;;19.46;52.02;101877.16;5047668;28;20524;-58
2022/05/15 08:35:18;;;;;;;;;;;;;;;19.56;51.61;101871.44;5050831;28;19920;-58
2022/05/15 08:37:44;;;;;;;;;;;;;;;19.65;52.06;101867.56;5048238;28;20011;-58
2022/05/15 08:40:10;;;;;;;;;;;;;;;19.75;51.68;101859.94;5053658;28;19924;-59
2022/05/15 08:42:41;;;;;;;;;;;;;;;19.87;49.55;101862.94;5048012;28;20008;-61
2022/05/15 08:45:10;;;;;;;;;;;;;;;19.94;50.13;101862.97;5053090;28;19966;-58
2022/05/15 08:47:38;;;;;;;;;;;;;;;20.05;51.04;101852.69;5051037;28;19925;-58
2022/05/15 08:50:06;;;;;;;;;;;;;;;20.14;49.10;101851.50;5051620;28;19925;-58
2022/05/15 08:52:36;;;;;;;;;;;;;;;20.27;49.85;101846.16;5050898;28;19927;-59
2022/05/15 08:55:07;;;;;;;;;;;;;;;20.38;49.73;101852.81;5049020;28;20012;-58
2022/05/15 08:57:32;;;;;;;;;;;;;;;20.46;48.39;101848.28;5046564;28;20290;-58
2022/05/15 08:59:58;;;;;;;;;;;;;;;20.55;48.83;101847.91;5047161;28;20041;-58
2022/05/15 09:02:25;;;;;;;;;;;;;;;20.66;46.83;101848.31;5048529;28;20031;-58
2022/05/15 09:04:51;;;;;;;;;;;;;;;20.69;46.48;101842.53;5035724;28;20437;-58
2022/05/15 09:07:33;;;;;;;;;;;;;;;20.78;47.40;101846.66;5045566;28;19929;-59
2022/05/15 09:10:07;;;;;;;;;;;;;;;20.86;46.71;101842.16;5040060;28;19929;-58
2022/05/15 09:12:35;;;;;;;;;;;;;;;20.97;47.32;101838.84;5049440;28;20015;-58
2022/05/15 09:15:04;;;;;;;;;;;;;;;21.07;46.29;101850.03;5049912;28;20324;-58
2022/05/15 09:17:31;;;;;;;;;;;;;;;21.10;44.39;101849.63;5048602;28;19925;-54
2022/05/15 09:19:58;;;;;;;;;;;;;;;21.17;44.27;101851.50;5050190;28;20573;-57
2022/05/15 09:22:28;;;;;;;;;;;;;;;21.26;43.94;101852.94;5050822;28;19931;-57
2022/05/15 09:24:53;;;;;;;;;;;;;;;21.27;43.85;101843.81;5046782;28;20372;-58
2022/05/15 09:27:20;;;;;;;;;;;;;;;21.35;42.50;101840.91;5047881;28;20058;-58
2022/05/15 09:29:52;;;;;;;;;;;;;;;21.33;43.25;101850.25;5047716;28;19925;-58
2022/05/15 09:32:47;;;;;;;;;;;;;;;21.35;42.34;101849.00;5040174;28;19929;-59
2022/05/15 09:35:32;;;;;;;;;;;;;;;21.43;43.52;101836.31;5020416;28;19921;-58
2022/05/15 09:43:30;;;;;;;;;;;;;;;21.65;42.07;101839.59;5042203;28;19974;-58
2022/05/15 09:43:32;;;;;;;;;;;;;;;21.77;38.79;101832.53;5040627;28;19921;-59
2022/05/15 09:45:58;;;;;;;;;;;;;;;21.82;41.03;101828.38;5046518;28;19924;-58
2022/05/15 09:48:30;;;;;;;;;;;;;;;21.86;41.21;101832.31;5046682;28;20341;-58
2022/05/15 09:50:56;;;;;;;;;;;;;;;21.88;39.77;101828.34;5044266;28;19925;-58
2022/05/15 09:53:24;;;;;;;;;;;;;;;21.97;39.77;101815.44;5046012;28;19924;-59
2022/05/15 09:55:59;;;;;;;;;;;;;;;22.04;38.86;101805.44;5042279;28;19929;-59
2022/05/15 09:58:24;;;;;;;;;;;;;;;22.10;36.36;101816.41;5050400;28;19925;-58
2022/05/15 10:00:49;;;;;;;;;;;;;;;22.12;36.63;101811.63;5053541;28;20011;-59
2022/05/15 10:03:21;;;;;;;;;;;;;;;22.11;38.37;101815.38;5049643;28;20417;-59
2022/05/15 10:05:55;;;;;;;;;;;;;;;22.20;38.10;101810.56;5052686;28;19920;-58
2022/05/15 10:08:22;;;;;;;;;;;;;;;22.29;38.74;101817.34;5050131;28;19955;-59
2022/05/15 10:10:50;;;;;;;;;;;;;;;22.39;38.68;101823.09;5053552;28;19924;-59
2022/05/15 10:13:15;;;;;;;;;;;;;;;22.43;38.33;101816.22;5039321;28;20355;-59
2022/05/15 10:15:42;;;;;;;;;;;;;;;22.56;38.81;101817.22;5055345;28;20330;-58
2022/05/15 10:18:09;;;;;;;;;;;;;;;22.73;37.01;101805.88;5054023;28;19928;-58
2022/05/15 10:20:37;;;;;;;;;;;;;;;22.70;37.52;101802.56;5053802;28;19927;-59
2022/05/15 10:23:09;;;;;;;;;;;;;;;22.73;36.64;101795.88;5046170;28;20047;-59
2022/05/15 10:25:53;;;;;;;;;;;;;;;22.78;37.57;101792.50;5055197;28;20330;-57
2022/05/15 10:28:18;;;;;;;;;;;;;;;22.83;35.22;101806.19;5053164;28;19959;-57
2022/05/15 10:30:50;;;;;;;;;;;;;;;22.91;37.05;101800.53;5054260;28;19956;-57
2022/05/15 10:33:16;;;;;;;;;;;;;;;22.97;36.60;101796.94;5049683;28;19982;-57
2022/05/15 10:35:47;;;;;;;;;;;;;;;22.95;37.65;101793.59;5054054;28;19971;-57
2022/05/15 10:38:18;;;;;;;;;;;;;;;23.03;36.98;101786.28;5050260;28;19921;-58
2022/05/15 10:40:47;;;;;;;;;;;;;;;23.15;34.71;101787.22;5035975;28;20341;-57
2022/05/15 10:43:21;;;;;;;;;;;;;;;23.28;35.46;101780.00;5052817;28;19935;-57
2022/05/15 10:46:01;;;;;;;;;;;;;;;23.28;33.42;101780.00;5053405;28;19960;-57
2022/05/15 10:48:26;;;;;;;;;;;;;;;23.20;33.15;101775.72;5053864;28;19921;-57
2022/05/15 10:50:59;;;;;;;;;;;;;;;23.12;35.41;101771.41;5054199;28;19921;-57
2022/05/15 10:59:19;;;;;;;;;;;;;;;23.29;35.29;101770.84;5046023;28;19943;-57
2022/05/15 11:01:50;;;;;;;;;;;;;;;23.31;35.56;101771.44;5050541;28;19921;-57
2022/05/15 11:04:38;;;;;;;;;;;;;;;23.42;33.68;101776.13;5053254;28;19929;-57
2022/05/15 11:07:26;;;;;;;;;;;;;;;23.49;34.28;101776.88;5052596;28;19966;-57
2022/05/15 11:10:06;;;;;;;;;;;;;;;23.54;35.32;101772.66;5035388;28;20004;-57
2022/05/15 11:12:40;;;;;;;;;;;;;;;23.60;34.15;101772.59;5054139;28;20007;-57
2022/05/15 11:15:11;;;;;;;;;;;;;;;23.62;33.78;101770.47;5050925;28;19924;-57
2022/05/15 11:17:39;;;;;;;;;;;;;;;23.77;32.77;101770.09;5045547;28;19924;-57
2022/05/15 11:20:06;;;;;;;;;;;;;;;23.84;33.22;101761.06;5052996;28;19966;-57
2022/05/15 11:22:40;;;;;;;;;;;;;;;23.88;34.60;101754.13;5053546;28;19921;-57
2022/05/15 11:25:20;;;;;;;;;;;;;;;23.99;34.80;101753.34;5035282;28;20617;-57
2022/05/15 11:27:55;;;;;;;;;;;;;;;24.02;33.76;101733.91;5034620;28;19927;-57
2022/05/15 11:30:24;;;;;;;;;;;;;;;24.03;30.98;101738.28;5050760;28;20031;-57
2022/05/15 11:32:52;;;;;;;;;;;;;;;24.11;33.69;101733.59;5052312;28;19968;-57
2022/05/15 11:35:17;;;;;;;;;;;;;;;24.23;33.26;101725.53;5053249;28;20015;-57
2022/05/15 11:37:42;;;;;;;;;;;;;;;24.31;34.10;101723.31;5053821;28;19951;-57
2022/05/15 11:40:12;;;;;;;;;;;;;;;24.44;34.21;101733.13;5050755;28;20355;-58
2022/05/15 11:42:37;;;;;;;;;;;;;;;24.52;31.73;101722.97;5049615;28;19920;-58
2022/05/15 11:45:21;;;;;;;;;;;;;;;24.53;31.29;101713.78;5052796;28;19976;-57
2022/05/15 11:48:05;;;;;;;;;;;;;;;24.62;32.57;101711.56;5047910;28;19921;-58
2022/05/15 11:50:35;;;;;;;;;;;;;;;24.67;32.07;101714.38;5050142;28;20004;-58
2022/05/15 11:53:09;;;;;;;;;;;;;;;24.68;32.54;101707.91;5053151;28;19917;-57
2022/05/15 11:55:42;;;;;;;;;;;;;;;24.79;33.31;101704.38;5049993;28;20425;-58
2022/05/15 11:58:16;;;;;;;;;;;;;;;24.80;33.28;101706.00;5052867;28;19925;-58
2022/05/15 12:00:42;;;;;;;;;;;;;;;24.90;31.17;101696.47;5050570;28;20279;-57
2022/05/15 12:03:27;;;;;;;;;;;;;;;24.93;32.55;101696.00;5052281;28;19974;-58
2022/05/15 12:06:03;;;;;;;;;;;;;;;24.95;31.10;101694.72;5041673;28;20257;-58
2022/05/15 12:08:30;;;;;;;;;;;;;;;24.93;31.00;101696.00;5052348;28;19921;-57
2022/05/15 12:10:59;;;;;;;;;;;;;;;24.92;31.65;101699.78;5052010;28;20563;-57
2022/05/15 12:13:27;;;;;;;;;;;;;;;24.98;31.86;101693.41;5049265;28;19955;-57
2022/05/15 12:16:11;;;;;;;;;;;;;;;25.11;31.33;101693.13;5051768;28;19994;-58
2022/05/15 12:18:38;;;;;;;;;;;;;;;25.24;30.14;101693.94;5050530;28;19967;-58
2022/05/15 12:21:05;;;;;;;;;;;;;;;25.38;31.86;101684.47;5051942;28;20015;-58
2022/05/15 12:23:32;;;;;;;;;;;;;;;25.51;31.43;101686.06;5050182;28;19920;-58
2022/05/15 12:25:57;;;;;;;;;;;;;;;25.61;31.23;101696.31;5052598;28;19932;-58
2022/05/15 12:31:18;;;;;;;;;;;;;;;25.54;30.69;101673.91;5049600;28;20390;-58
2022/05/15 12:33:43;;;;;;;;;;;;;;;25.44;30.36;101662.81;5050463;28;19948;-59
2022/05/15 12:36:13;;;;;;;;;;;;;;;25.41;31.13;101680.41;5034112;28;20329;-58
2022/05/15 12:38:42;;;;;;;;;;;;;;;25.53;26.91;101672.28;5043504;28;19928;-59
2022/05/15 12:41:12;;;;;;;;;;;;;;;25.69;29.21;101665.25;5051799;28;20467;-58
2022/05/15 12:43:41;;;;;;;;;;;;;;;25.78;25.08;101665.66;5049746;28;19932;-58
2022/05/15 12:46:07;;;;;;;;;;;;;;;25.85;24.99;101657.38;5051414;28;20409;-58
2022/05/15 12:48:37;;;;;;;;;;;;;;;25.95;29.51;101651.28;5051442;28;19962;-59
2022/05/15 12:51:09;;;;;;;;;;;;;;;26.06;27.42;101655.81;5041131;28;19963;-58
2022/05/15 12:53:48;;;;;;;;;;;;;;;26.16;27.63;101647.81;5051258;28;19936;-59
2022/05/15 12:56:17;;;;;;;;;;;;;;;26.19;27.51;101649.22;5043333;28;20275;-59
2022/05/15 12:58:46;;;;;;;;;;;;;;;26.17;28.58;101644.06;5042492;28;20311;-60
2022/05/15 13:01:11;;;;;;;;;;;;;;;26.22;27.52;101634.31;5043133;28;20298;-62
2022/05/15 13:03:40;;;;;;;;;;;;;;;26.19;28.19;101639.19;5042691;28;19925;-60